nws-alerts: Checking more than four warning/county codes can delay the loading of your pages. You should use a cron job to get the data.

Nearby METAR Reports

 

KOXC - Oxford/Waterbury, Connecticut, USA
Distance from station: NW 7mi, 11km
Updated: 07/06/2020 6:51pm
Mostly cloudy
Mostly cloudy
 Wind from SSE
Wind: SSE 15 mph , 24 km/h
Temperature: 73°F , 23°C
Dew Point: 68°F , 20°C
Humidity: 83%
Barometer: 30.11 inHg , 1019.6 hPa
Clouds: Mostly cloudy
Visibility: 10 miles , 16 km
Cloud details: Mostly cloudy 1400 ft
2020/07/06 22:51 KOXC 062251Z 15013KT 10SM BKN014 23/20 A3011 RMK AO2 LTG DSNT NE SLP205 T02280200
KHVN - New Haven/Tweed, Connecticut, USA
Distance from station: SE 13mi, 20km
Updated: 07/06/2020 7:53pm
Few Clouds
Few Clouds
 Wind from SE
Wind: SE 10 mph , 17 km/h
Temperature: 73°F , 23°C
Dew Point: 68°F , 20°C
Humidity: 83%
Barometer: 30.10 inHg , 1019.3 hPa
Clouds: Few Clouds
Visibility: 10 miles , 16 km
Cloud details: Few Clouds 2200 ft
2020/07/06 23:53 KHVN 062353Z 14009KT 10SM FEW022 23/20 A3010 RMK AO2 SLP192 T02330200 10306 20233 50009 $
 
KMMK - Meriden, Connecticut, USA
Distance from station: NE 13mi, 21km
Updated: 07/06/2020 7:58pm
unable to load KMMK data RC=
unable to load KMMK data RC=
 
KBDR - Bridgeport, Connecticut, USA
Distance from station: SSW 17mi, 27km
Updated: 07/06/2020 7:52pm
Clear
Clear
 Wind from ESE
Wind: ESE 12 mph , 19 km/h
Temperature: 73°F , 23°C
Dew Point: 66°F , 19°C
Humidity: 78%
Barometer: 30.09 inHg , 1019 hPa
Clouds: Clear
Visibility: 10 miles , 16 km
2020/07/06 23:52 KBDR 062352Z 12010KT 10SM CLR 23/19 A3009 RMK AO2 SLP190 T02280194 10306 20228 51014
 
KDXR - Danbury, Connecticut, USA
Distance from station: W 23mi, 38km
Updated: 07/06/2020 7:53pm
Clear
Clear
 Wind from SE
Wind: SE 7 mph , 11 km/h
Temperature: 72°F , 22°C
Dew Point: 66°F , 19°C
Humidity: 83%
Barometer: 30.11 inHg , 1019.6 hPa
Clouds: Clear
Visibility: 10 miles , 16 km
2020/07/06 23:53 KDXR 062353Z 13006KT 10SM CLR 22/19 A3011 RMK AO2 SLP191 T02170189 10317 20217 51017